This is the latest recevied weather packets stored in our database for station/object ZS1OSS-13. If no packets are shown the sender has not sent any weather packets the latest 10 day(s).
| Time | Temp. | Humidity | Pressure | Rain* | Wind** | Luminosity | Snow |
|---|---|---|---|---|---|---|---|
| 1777907902 | 18.33° C | 68% | 1013 hPa | 0 mm | - | 41 W/m² | - |
| 1777907598 | 18.33° C | 66% | 1013 hPa | 0 mm | - | 46 W/m² | - |
| 1777907294 | 18.89° C | 67% | 1012.9 hPa | 0 mm | - | 52 W/m² | - |
| 1777906991 | 18.33° C | 67% | 1012.7 hPa | 0 mm | - | 79 W/m² | - |
| 1777906689 | 18.89° C | 66% | 1012.7 hPa | 0 mm | - | 84 W/m² | - |
| 1777906385 | 18.89° C | 66% | 1012.8 hPa | 0 mm | - | 95 W/m² | - |
| 1777906081 | 18.89° C | 67% | 1012.7 hPa | 0 mm | - | 111 W/m² | - |
| 1777905475 | 18.89° C | 66% | 1012.7 hPa | 0 mm | - | 140 W/m² | - |
| 1777905172 | 19.44° C | 65% | 1012.7 hPa | 0 mm | - | 155 W/m² | - |
| 1777904870 | 19.44° C | 65% | 1012.6 hPa | 0 mm | - | 173 W/m² | - |
| 1777904567 | 19.44° C | 64% | 1012.4 hPa | 0 mm | - | 185 W/m² | - |
| 1777904263 | 19.44° C | 63% | 1012.5 hPa | 0 mm | - | 203 W/m² | - |
| 1777903961 | 18.89° C | 64% | 1012.4 hPa | 0 mm | - | 215 W/m² | - |
| 1777903657 | 19.44° C | 62% | 1012.6 hPa | 0 mm | - | 230 W/m² | - |
| 1777903353 | 19.44° C | 63% | 1012.4 hPa | 0 mm | - | 248 W/m² | - |
| 1777902746 | 20° C | 61% | 1012.4 hPa | 0 mm | - | 276 W/m² | - |
| 1777902444 | 19.44° C | 64% | 1012.3 hPa | 0 mm | - | 287 W/m² | - |
| 1777902140 | 19.44° C | 65% | 1012.2 hPa | 0 mm | - | 307 W/m² | - |
| 1777901839 | 20° C | 63% | 1012.3 hPa | 0 mm | - | 320 W/m² | - |
| 1777901536 | 19.44° C | 64% | 1012.2 hPa | 0 mm | - | 333 W/m² | - |
| 1777901233 | 20° C | 64% | 1012.3 hPa | 0 mm | - | 347 W/m² | - |
| 1777900930 | 20° C | 63% | 1012.4 hPa | 0 mm | - | 355 W/m² | - |
| 1777900628 | 20° C | 63% | 1012.1 hPa | 0 mm | - | 391 W/m² | - |
| 1777900325 | 20.56° C | 63% | 1012.4 hPa | 0 mm | - | 393 W/m² | - |
| 1777900022 | 20° C | 65% | 1012.4 hPa | 0 mm | - | 406 W/m² | - |
* Rain latest hour (hover to see other rain measurements)
** Current wind speed in m/s (hover to see current wind gust speed)